createdAt,value
2018-12-06T00:00:13.793Z,1013.85
2018-12-06T00:01:19.320Z,1013.87
2018-12-06T00:02:24.859Z,1013.82
2018-12-06T00:03:30.384Z,1013.79
2018-12-06T00:04:35.916Z,1013.76
2018-12-06T00:05:41.451Z,1013.74
2018-12-06T00:06:46.981Z,1013.70
2018-12-06T00:07:52.514Z,1013.66
2018-12-06T00:08:58.046Z,1013.66
2018-12-06T00:10:03.571Z,1013.66
2018-12-06T00:11:09.104Z,1013.71
2018-12-06T00:12:14.638Z,1013.66
2018-12-06T00:13:20.166Z,1013.74
2018-12-06T00:14:25.703Z,1013.74
2018-12-06T00:15:31.232Z,1013.66
2018-12-06T00:16:36.771Z,1013.70
2018-12-06T00:17:42.300Z,1013.64
2018-12-06T00:18:47.829Z,1013.63
2018-12-06T00:19:53.359Z,1013.56
2018-12-06T00:20:58.890Z,1013.52
2018-12-06T00:22:04.421Z,1013.50
2018-12-06T00:23:09.957Z,1013.52
2018-12-06T00:24:15.492Z,1013.48
2018-12-06T00:25:21.021Z,1013.51
2018-12-06T00:26:26.546Z,1013.46
2018-12-06T00:27:32.078Z,1013.43
2018-12-06T00:28:37.612Z,1013.43
2018-12-06T00:29:43.144Z,1013.47
2018-12-06T00:30:48.673Z,1013.43
2018-12-06T00:31:54.211Z,1013.44
2018-12-06T00:32:59.742Z,1013.40
2018-12-06T00:34:05.269Z,1013.46
2018-12-06T00:35:10.799Z,1013.41
2018-12-06T00:36:16.333Z,1013.42
2018-12-06T00:37:21.865Z,1013.39
2018-12-06T00:38:27.407Z,1013.38
2018-12-06T00:39:32.928Z,1013.39
2018-12-06T00:40:38.462Z,1013.42
2018-12-06T00:41:43.991Z,1013.41
2018-12-06T00:42:49.526Z,1013.43
2018-12-06T00:43:55.059Z,1013.38
2018-12-06T00:45:00.595Z,1013.41
2018-12-06T00:46:06.119Z,1013.39
2018-12-06T00:47:11.647Z,1013.39
2018-12-06T00:48:17.178Z,1013.41
2018-12-06T00:49:22.714Z,1013.36
2018-12-06T00:50:28.250Z,1013.37
2018-12-06T00:51:33.782Z,1013.36
2018-12-06T00:52:39.310Z,1013.27
2018-12-06T00:53:44.841Z,1013.31
2018-12-06T00:54:50.371Z,1013.22
2018-12-06T00:55:55.901Z,1013.21
2018-12-06T00:57:01.439Z,1013.18
2018-12-06T00:58:06.962Z,1013.18
2018-12-06T00:59:12.496Z,1013.22
2018-12-06T01:00:18.030Z,1013.22
2018-12-06T01:01:23.559Z,1013.26
2018-12-06T01:02:29.094Z,1013.30
2018-12-06T01:03:34.622Z,1013.25
2018-12-06T01:04:40.159Z,1013.26
2018-12-06T01:05:45.689Z,1013.23
2018-12-06T01:06:51.216Z,1013.22
2018-12-06T01:07:56.753Z,1013.22
2018-12-06T01:09:02.279Z,1013.19
2018-12-06T01:10:07.815Z,1013.26
2018-12-06T01:11:13.344Z,1013.24
2018-12-06T01:12:18.875Z,1013.24
2018-12-06T01:13:24.406Z,1013.22
2018-12-06T01:14:29.936Z,1013.25
2018-12-06T01:15:35.471Z,1013.22
2018-12-06T01:16:41.000Z,1013.29
2018-12-06T01:17:46.533Z,1013.25
2018-12-06T01:18:52.065Z,1013.26
2018-12-06T01:19:57.597Z,1013.24
2018-12-06T01:21:03.127Z,1013.25
2018-12-06T01:22:08.657Z,1013.23
2018-12-06T01:23:14.189Z,1013.24
2018-12-06T01:24:19.729Z,1013.20
2018-12-06T01:25:25.252Z,1013.23
2018-12-06T01:26:30.785Z,1013.16
2018-12-06T01:27:36.321Z,1013.18
2018-12-06T01:28:41.848Z,1013.13
2018-12-06T01:29:47.384Z,1013.11
2018-12-06T01:30:52.926Z,1013.07
2018-12-06T01:31:58.443Z,1013.04
2018-12-06T01:33:03.982Z,1012.99
2018-12-06T01:34:09.512Z,1013.00
2018-12-06T01:35:15.037Z,1012.94
2018-12-06T01:36:20.572Z,1012.89
2018-12-06T01:37:26.164Z,1012.90
2018-12-06T01:38:31.634Z,1012.84
2018-12-06T01:39:37.165Z,1012.85
2018-12-06T01:40:42.694Z,1012.85
2018-12-06T01:41:48.253Z,1012.80
2018-12-06T01:42:53.758Z,1012.75
2018-12-06T01:43:59.328Z,1012.77
2018-12-06T01:45:04.825Z,1012.73
2018-12-06T01:46:10.396Z,1012.68
2018-12-06T01:47:15.885Z,1012.70
2018-12-06T01:48:21.417Z,1012.69
2018-12-06T01:49:26.983Z,1012.66
2018-12-06T01:50:32.489Z,1012.64
2018-12-06T01:51:38.033Z,1012.66
2018-12-06T01:52:43.551Z,1012.60
2018-12-06T01:53:49.079Z,1012.56
2018-12-06T01:54:54.605Z,1012.60
2018-12-06T01:56:00.186Z,1012.57
2018-12-06T01:57:05.676Z,1012.54
2018-12-06T01:58:11.202Z,1012.51
2018-12-06T01:59:16.739Z,1012.53
2018-12-06T02:00:22.280Z,1012.44
2018-12-06T02:01:27.799Z,1012.47
2018-12-06T02:02:33.327Z,1012.46
2018-12-06T02:03:38.925Z,1012.43
2018-12-06T02:04:44.399Z,1012.44
2018-12-06T02:05:49.927Z,1012.43
2018-12-06T02:06:55.458Z,1012.34
2018-12-06T02:08:00.993Z,1012.34
2018-12-06T02:09:06.523Z,1012.37
2018-12-06T02:10:12.119Z,1012.36
2018-12-06T02:11:17.582Z,1012.38
2018-12-06T02:12:23.116Z,1012.32
2018-12-06T02:13:28.640Z,1012.28
2018-12-06T02:14:34.176Z,1012.29
2018-12-06T02:15:39.705Z,1012.30
2018-12-06T02:16:45.241Z,1012.26
2018-12-06T02:17:50.776Z,1012.31
2018-12-06T02:18:56.302Z,1012.23
2018-12-06T02:20:01.840Z,1012.19
2018-12-06T02:21:07.368Z,1012.17
2018-12-06T02:22:12.899Z,1012.20
2018-12-06T02:23:18.430Z,1012.15
2018-12-06T02:24:23.964Z,1012.14
2018-12-06T02:25:29.495Z,1012.12
2018-12-06T02:26:35.022Z,1012.12
2018-12-06T02:27:40.554Z,1012.09
2018-12-06T02:28:46.090Z,1012.05
2018-12-06T02:29:51.616Z,1012.05
2018-12-06T02:30:57.149Z,1012.06
2018-12-06T02:32:02.684Z,1012.02
2018-12-06T02:33:08.218Z,1011.97
2018-12-06T02:34:13.746Z,1011.96
2018-12-06T02:35:19.275Z,1011.99
2018-12-06T02:36:24.812Z,1011.95
2018-12-06T02:37:30.346Z,1011.94
2018-12-06T02:38:35.870Z,1011.89
2018-12-06T02:39:41.401Z,1011.87
2018-12-06T02:40:46.934Z,1011.88
2018-12-06T02:41:52.464Z,1011.84
2018-12-06T02:42:58.000Z,1011.80
2018-12-06T02:44:03.540Z,1011.76
2018-12-06T02:45:09.060Z,1011.72
2018-12-06T02:46:14.596Z,1011.70
2018-12-06T02:47:20.121Z,1011.72
2018-12-06T02:48:25.657Z,1011.68
2018-12-06T02:49:31.191Z,1011.72
2018-12-06T02:50:36.714Z,1011.67
2018-12-06T02:51:42.249Z,1011.68
2018-12-06T02:52:47.779Z,1011.68
2018-12-06T02:53:53.315Z,1011.61
2018-12-06T02:54:58.846Z,1011.60
2018-12-06T02:56:04.375Z,1011.55
2018-12-06T02:57:09.915Z,1011.52
2018-12-06T02:58:15.441Z,1011.50
2018-12-06T02:59:20.968Z,1011.47
2018-12-06T03:00:26.507Z,1011.45
2018-12-06T03:01:32.031Z,1011.47
2018-12-06T03:02:37.563Z,1011.44
2018-12-06T03:03:43.095Z,1011.41
2018-12-06T03:04:48.626Z,1011.45
2018-12-06T03:05:54.159Z,1011.41
2018-12-06T03:06:59.691Z,1011.40
2018-12-06T03:08:05.230Z,1011.41
2018-12-06T03:09:10.753Z,1011.41
2018-12-06T03:10:16.285Z,1011.44
2018-12-06T03:11:21.816Z,1011.47
2018-12-06T03:12:27.349Z,1011.44
2018-12-06T03:13:32.878Z,1011.45
2018-12-06T03:14:38.410Z,1011.47
2018-12-06T03:15:43.942Z,1011.44
2018-12-06T03:16:49.477Z,1011.48
2018-12-06T03:17:55.004Z,1011.47
2018-12-06T03:19:00.538Z,1011.44
2018-12-06T03:20:06.072Z,1011.45
2018-12-06T03:21:11.605Z,1011.52
2018-12-06T03:22:17.132Z,1011.48
2018-12-06T03:23:22.672Z,1011.52
2018-12-06T03:24:28.198Z,1011.51
2018-12-06T03:25:33.728Z,1011.53
2018-12-06T03:26:39.263Z,1011.55
2018-12-06T03:27:44.792Z,1011.53
2018-12-06T03:28:50.323Z,1011.59
2018-12-06T03:29:55.859Z,1011.55
2018-12-06T03:31:01.394Z,1011.59
2018-12-06T03:32:06.919Z,1011.53
2018-12-06T03:33:12.446Z,1011.58
2018-12-06T03:34:17.981Z,1011.53
2018-12-06T03:35:23.516Z,1011.54
2018-12-06T03:36:29.047Z,1011.56
2018-12-06T03:37:34.582Z,1011.52
2018-12-06T03:38:40.109Z,1011.51
2018-12-06T03:39:45.647Z,1011.45
2018-12-06T03:40:51.176Z,1011.48
2018-12-06T03:41:56.701Z,1011.41
2018-12-06T03:43:02.239Z,1011.43
2018-12-06T03:44:07.767Z,1011.47
2018-12-06T03:45:13.295Z,1011.56
2018-12-06T03:46:18.829Z,1011.59
2018-12-06T03:47:24.363Z,1011.57
2018-12-06T03:48:29.898Z,1011.59
2018-12-06T03:49:35.423Z,1011.57
2018-12-06T03:50:40.955Z,1011.58
2018-12-06T03:51:46.487Z,1011.53
2018-12-06T03:52:52.018Z,1011.49
2018-12-06T03:53:57.548Z,1011.41
2018-12-06T03:55:03.085Z,1011.35
2018-12-06T03:56:08.619Z,1011.26
2018-12-06T03:57:14.151Z,1011.24
2018-12-06T03:58:19.675Z,1011.23
2018-12-06T03:59:25.209Z,1011.23
2018-12-06T04:00:30.744Z,1011.23
2018-12-06T04:01:36.279Z,1011.29
2018-12-06T04:02:41.805Z,1011.25
2018-12-06T04:03:47.351Z,1011.27
2018-12-06T04:04:52.872Z,1011.32
2018-12-06T04:05:58.402Z,1011.26
2018-12-06T04:07:03.940Z,1011.26
2018-12-06T04:08:09.463Z,1011.28
2018-12-06T04:09:14.997Z,1011.31
2018-12-06T04:10:20.532Z,1011.30
2018-12-06T04:11:26.063Z,1011.29
2018-12-06T04:12:31.592Z,1011.32
2018-12-06T04:13:37.124Z,1011.31
2018-12-06T04:14:42.657Z,1011.31
2018-12-06T04:15:48.193Z,1011.36
2018-12-06T04:16:53.719Z,1011.34
2018-12-06T04:17:59.256Z,1011.36
2018-12-06T04:19:04.783Z,1011.41
2018-12-06T04:20:10.315Z,1011.41
2018-12-06T04:21:15.851Z,1011.45
2018-12-06T04:22:21.378Z,1011.49
2018-12-06T04:23:26.912Z,1011.45
2018-12-06T04:24:32.449Z,1011.40
2018-12-06T04:25:37.973Z,1011.40
2018-12-06T04:26:43.507Z,1011.45
2018-12-06T04:27:49.040Z,1011.44
2018-12-06T04:28:54.570Z,1011.41
2018-12-06T04:30:00.104Z,1011.42
2018-12-06T04:31:05.636Z,1011.44
2018-12-06T04:32:11.162Z,1011.43
2018-12-06T04:33:16.699Z,1011.41
2018-12-06T04:34:22.231Z,1011.45
2018-12-06T04:35:27.762Z,1011.42
2018-12-06T04:36:33.305Z,1011.44
2018-12-06T04:37:38.836Z,1011.41
2018-12-06T04:38:44.357Z,1011.39
2018-12-06T04:39:49.892Z,1011.31
2018-12-06T04:40:55.419Z,1011.32
2018-12-06T04:42:00.951Z,1011.32
2018-12-06T04:43:06.484Z,1011.25
2018-12-06T04:44:12.016Z,1011.27
2018-12-06T04:45:17.547Z,1011.24
2018-12-06T04:46:23.079Z,1011.29
2018-12-06T04:47:28.613Z,1011.29
2018-12-06T04:48:34.142Z,1011.23
2018-12-06T04:49:39.676Z,1011.26
2018-12-06T04:50:45.205Z,1011.25
2018-12-06T04:51:50.742Z,1011.31
2018-12-06T04:52:56.329Z,1011.27
2018-12-06T04:54:01.802Z,1011.27
2018-12-06T04:55:07.340Z,1011.25
2018-12-06T04:56:12.871Z,1011.24
2018-12-06T04:57:18.399Z,1011.22
2018-12-06T04:58:23.935Z,1011.23
2018-12-06T04:59:29.460Z,1011.23
2018-12-06T05:00:34.994Z,1011.22
2018-12-06T05:01:40.527Z,1011.24
2018-12-06T05:02:46.055Z,1011.26
2018-12-06T05:03:51.588Z,1011.31
2018-12-06T05:04:57.120Z,1011.33
2018-12-06T05:06:02.654Z,1011.31
2018-12-06T05:07:08.183Z,1011.29
2018-12-06T05:08:13.717Z,1011.30
2018-12-06T05:09:19.245Z,1011.29
2018-12-06T05:10:24.778Z,1011.27
2018-12-06T05:11:30.312Z,1011.26
2018-12-06T05:12:35.846Z,1011.23
2018-12-06T05:13:41.375Z,1011.19
2018-12-06T05:14:46.907Z,1011.13
2018-12-06T05:15:52.444Z,1011.10
2018-12-06T05:16:57.968Z,1011.05
2018-12-06T05:18:03.508Z,1011.03
2018-12-06T05:19:09.035Z,1010.99
2018-12-06T05:20:14.566Z,1010.97
2018-12-06T05:21:20.106Z,1010.93
2018-12-06T05:22:25.632Z,1010.91
2018-12-06T05:23:31.161Z,1010.93
2018-12-06T05:24:36.699Z,1010.94
2018-12-06T05:25:42.225Z,1010.92
2018-12-06T05:26:47.761Z,1010.88
2018-12-06T05:27:53.294Z,1010.90
2018-12-06T05:28:58.819Z,1010.85
2018-12-06T05:30:04.351Z,1010.81
2018-12-06T05:31:09.885Z,1010.80
2018-12-06T05:32:15.419Z,1010.76
2018-12-06T05:33:20.953Z,1010.76
2018-12-06T05:34:26.479Z,1010.71
2018-12-06T05:35:32.013Z,1010.71
2018-12-06T05:36:37.545Z,1010.66
2018-12-06T05:37:43.074Z,1010.63
2018-12-06T05:38:48.607Z,1010.68
2018-12-06T05:39:54.143Z,1010.68
2018-12-06T05:40:59.668Z,1010.66
2018-12-06T05:42:05.201Z,1010.61
2018-12-06T05:43:10.734Z,1010.62
2018-12-06T05:44:16.274Z,1010.59
2018-12-06T05:45:21.800Z,1010.57
2018-12-06T05:46:27.332Z,1010.51
2018-12-06T05:47:32.861Z,1010.46
2018-12-06T05:48:38.398Z,1010.38
2018-12-06T05:49:43.930Z,1010.33
2018-12-06T05:50:49.458Z,1010.23
2018-12-06T05:51:54.994Z,1010.14
2018-12-06T05:53:00.521Z,1010.04
2018-12-06T05:54:06.053Z,1010.03
2018-12-06T05:55:11.585Z,1009.94
2018-12-06T05:56:17.116Z,1009.96
2018-12-06T05:57:22.652Z,1009.92
2018-12-06T05:58:28.182Z,1009.97
2018-12-06T05:59:33.713Z,1009.93
2018-12-06T06:00:39.243Z,1009.97
2018-12-06T06:01:44.775Z,1010.06
2018-12-06T06:02:50.307Z,1010.07
2018-12-06T06:03:55.841Z,1010.09
2018-12-06T06:05:01.371Z,1010.14
2018-12-06T06:06:06.907Z,1010.13
2018-12-06T06:07:12.439Z,1010.19
2018-12-06T06:08:17.966Z,1010.26
2018-12-06T06:09:23.496Z,1010.29
2018-12-06T06:10:29.030Z,1010.34
2018-12-06T06:11:34.561Z,1010.40
2018-12-06T06:12:40.129Z,1010.41
2018-12-06T06:13:45.628Z,1010.46
2018-12-06T06:14:51.157Z,1010.50
2018-12-06T06:15:56.689Z,1010.51
2018-12-06T06:17:02.225Z,1010.58
2018-12-06T06:18:07.756Z,1010.67
2018-12-06T06:19:13.289Z,1010.69
2018-12-06T06:20:18.820Z,1010.72
2018-12-06T06:21:24.345Z,1010.81
2018-12-06T06:22:29.877Z,1010.80
2018-12-06T06:23:35.408Z,1010.83
2018-12-06T06:24:40.941Z,1010.85
2018-12-06T06:25:46.474Z,1010.90
2018-12-06T06:26:52.011Z,1010.89
2018-12-06T06:27:57.542Z,1010.89
2018-12-06T06:29:03.088Z,1010.90
2018-12-06T06:30:08.598Z,1010.94
2018-12-06T06:31:14.137Z,1010.98
2018-12-06T06:32:19.669Z,1011.01
2018-12-06T06:33:25.193Z,1011.03
2018-12-06T06:34:30.727Z,1011.01
2018-12-06T06:35:36.265Z,1011.05
2018-12-06T06:36:41.796Z,1011.05
2018-12-06T06:37:47.324Z,1011.03
2018-12-06T06:38:52.853Z,1011.03
2018-12-06T06:39:58.387Z,1011.05
2018-12-06T06:41:03.922Z,1011.07
2018-12-06T06:42:09.452Z,1011.06
2018-12-06T06:43:14.982Z,1011.07
2018-12-06T06:44:20.513Z,1011.06
2018-12-06T06:45:26.050Z,1011.04
2018-12-06T06:46:31.585Z,1011.02
2018-12-06T06:47:37.108Z,1011.02
2018-12-06T06:48:42.640Z,1011.01
2018-12-06T06:49:48.177Z,1010.98
2018-12-06T06:50:53.714Z,1010.90
2018-12-06T06:51:59.241Z,1010.85
2018-12-06T06:53:04.774Z,1010.84
2018-12-06T06:54:10.305Z,1010.83
2018-12-06T06:55:15.833Z,1010.84
2018-12-06T06:56:21.373Z,1010.80
2018-12-06T06:57:26.902Z,1010.89
2018-12-06T06:58:32.431Z,1010.88
2018-12-06T06:59:37.964Z,1010.91
2018-12-06T07:00:43.499Z,1010.87
2018-12-06T07:01:49.026Z,1010.91
2018-12-06T07:02:54.559Z,1010.90
2018-12-06T07:04:00.101Z,1010.89
2018-12-06T07:05:05.622Z,1010.89
2018-12-06T07:06:11.153Z,1010.90
2018-12-06T07:07:16.690Z,1010.91
2018-12-06T07:08:22.222Z,1010.92
2018-12-06T07:09:27.758Z,1010.90
2018-12-06T07:10:33.285Z,1010.90
2018-12-06T07:11:38.817Z,1010.92
2018-12-06T07:12:44.358Z,1010.94
2018-12-06T07:13:49.886Z,1010.96
2018-12-06T07:14:55.410Z,1010.96
2018-12-06T07:16:00.953Z,1010.96
2018-12-06T07:17:06.481Z,1010.97
2018-12-06T07:18:12.011Z,1010.99
2018-12-06T07:19:17.551Z,1010.96
2018-12-06T07:20:23.071Z,1011.07
2018-12-06T07:21:28.605Z,1011.05
2018-12-06T07:22:34.136Z,1011.09
2018-12-06T07:23:39.675Z,1011.13
2018-12-06T07:24:45.208Z,1011.15
2018-12-06T07:25:50.749Z,1011.20
2018-12-06T07:26:56.382Z,1011.26
2018-12-06T07:28:01.807Z,1011.27
2018-12-06T07:29:07.329Z,1011.37
2018-12-06T07:30:12.866Z,1011.34
2018-12-06T07:31:18.395Z,1011.37
2018-12-06T07:32:23.930Z,1011.34
2018-12-06T07:33:29.462Z,1011.38
2018-12-06T07:34:35.070Z,1011.37
2018-12-06T07:35:40.527Z,1011.36
2018-12-06T07:36:46.057Z,1011.40
2018-12-06T07:37:51.586Z,1011.41
2018-12-06T07:38:57.121Z,1011.47
2018-12-06T07:40:02.650Z,1011.51
2018-12-06T07:41:08.184Z,1011.47
2018-12-06T07:42:13.720Z,1011.47
2018-12-06T07:43:19.248Z,1011.44
2018-12-06T07:44:24.782Z,1011.45
2018-12-06T07:45:30.314Z,1011.45
2018-12-06T07:46:35.845Z,1011.46
2018-12-06T07:47:41.379Z,1011.49
2018-12-06T07:48:46.912Z,1011.42
2018-12-06T07:49:52.441Z,1011.44
2018-12-06T07:50:57.977Z,1011.44
2018-12-06T07:52:03.510Z,1011.47
2018-12-06T07:53:09.044Z,1011.48
2018-12-06T07:54:14.572Z,1011.47
2018-12-06T07:55:20.105Z,1011.49
2018-12-06T07:56:25.645Z,1011.47
2018-12-06T07:57:31.175Z,1011.45
2018-12-06T07:58:36.710Z,1011.42
2018-12-06T07:59:42.233Z,1011.40
2018-12-06T08:00:47.767Z,1011.41
2018-12-06T08:01:53.300Z,1011.44
2018-12-06T08:02:58.838Z,1011.40
2018-12-06T08:04:04.371Z,1011.42
2018-12-06T08:05:09.895Z,1011.46
2018-12-06T08:06:15.430Z,1011.45
2018-12-06T08:07:20.960Z,1011.45
2018-12-06T08:08:26.495Z,1011.46
2018-12-06T08:09:32.032Z,1011.42
2018-12-06T08:10:37.564Z,1011.41
2018-12-06T08:11:43.092Z,1011.41
2018-12-06T08:12:48.628Z,1011.38
2018-12-06T08:13:54.155Z,1011.35
2018-12-06T08:14:59.689Z,1011.35
2018-12-06T08:16:05.226Z,1011.30
2018-12-06T08:17:10.752Z,1011.31
2018-12-06T08:18:16.291Z,1011.34
2018-12-06T08:19:21.824Z,1011.33
2018-12-06T08:20:27.351Z,1011.30
2018-12-06T08:21:32.880Z,1011.35
2018-12-06T08:22:38.416Z,1011.26
2018-12-06T08:23:43.949Z,1011.26
2018-12-06T08:24:49.480Z,1011.26
2018-12-06T08:25:55.011Z,1011.22
2018-12-06T08:27:00.548Z,1011.17
2018-12-06T08:28:06.081Z,1011.21
2018-12-06T08:29:11.609Z,1011.15
2018-12-06T08:30:17.146Z,1011.11
2018-12-06T08:31:22.675Z,1011.08
2018-12-06T08:32:28.208Z,1011.04
2018-12-06T08:33:33.743Z,1011.02
2018-12-06T08:34:39.274Z,1011.02
2018-12-06T08:35:44.807Z,1011.00
2018-12-06T08:36:50.337Z,1010.98
2018-12-06T08:37:55.877Z,1010.96
2018-12-06T08:39:01.402Z,1010.95
2018-12-06T08:40:06.936Z,1010.96
2018-12-06T08:41:12.468Z,1010.94
2018-12-06T08:42:18.007Z,1010.91
2018-12-06T08:43:23.530Z,1010.86
2018-12-06T08:44:29.073Z,1010.77
2018-12-06T08:45:34.604Z,1010.72
2018-12-06T08:46:40.129Z,1010.74
2018-12-06T08:47:45.661Z,1010.73
2018-12-06T08:48:51.196Z,1010.68
2018-12-06T08:49:56.733Z,1010.68
2018-12-06T08:51:02.264Z,1010.62
2018-12-06T08:52:07.793Z,1010.55
2018-12-06T08:53:13.329Z,1010.54
2018-12-06T08:54:18.859Z,1010.52
2018-12-06T08:55:24.390Z,1010.52
2018-12-06T08:56:29.925Z,1010.54
2018-12-06T08:57:35.457Z,1010.52
2018-12-06T08:58:40.990Z,1010.54
2018-12-06T08:59:46.526Z,1010.50
2018-12-06T09:00:52.057Z,1010.53
2018-12-06T09:01:57.587Z,1010.50
2018-12-06T09:03:03.121Z,1010.50
2018-12-06T09:04:08.651Z,1010.59
2018-12-06T09:05:14.190Z,1010.63
2018-12-06T09:06:19.720Z,1010.64
2018-12-06T09:07:25.255Z,1010.67
2018-12-06T09:08:30.781Z,1010.74
2018-12-06T09:09:36.317Z,1010.79
2018-12-06T09:10:41.848Z,1010.89
2018-12-06T09:11:47.391Z,1010.95
2018-12-06T09:12:52.913Z,1010.97
2018-12-06T09:13:58.454Z,1010.94
2018-12-06T09:15:03.977Z,1010.97
2018-12-06T09:16:09.516Z,1010.98
2018-12-06T09:17:15.043Z,1011.03
2018-12-06T09:18:20.583Z,1011.07
2018-12-06T09:19:26.112Z,1011.12
2018-12-06T09:20:31.643Z,1011.13
2018-12-06T09:21:37.175Z,1011.11
2018-12-06T09:22:42.711Z,1011.17
2018-12-06T09:23:48.245Z,1011.21
2018-12-06T09:24:53.779Z,1011.18
2018-12-06T09:25:59.314Z,1011.17
2018-12-06T09:27:04.845Z,1011.12
2018-12-06T09:28:10.375Z,1011.11
2018-12-06T09:29:15.908Z,1011.06
2018-12-06T09:30:21.435Z,1011.10
2018-12-06T09:31:26.979Z,1011.12
2018-12-06T09:32:32.509Z,1011.04
2018-12-06T09:33:38.033Z,1011.00
2018-12-06T09:34:43.569Z,1010.99
2018-12-06T09:35:49.113Z,1010.94
2018-12-06T09:36:54.634Z,1010.92
2018-12-06T09:38:00.170Z,1010.93
2018-12-06T09:39:05.706Z,1010.88
2018-12-06T09:40:11.239Z,1010.92
2018-12-06T09:41:16.767Z,1010.93
2018-12-06T09:42:22.309Z,1010.89
2018-12-06T09:43:27.842Z,1010.89
2018-12-06T09:44:33.365Z,1010.81
2018-12-06T09:45:38.905Z,1010.77
2018-12-06T09:46:44.434Z,1010.70
2018-12-06T09:47:49.975Z,1010.71
2018-12-06T09:48:55.498Z,1010.72
2018-12-06T09:50:01.033Z,1010.61
2018-12-06T09:51:06.575Z,1010.64
2018-12-06T09:52:12.107Z,1010.56
2018-12-06T09:53:17.631Z,1010.50
2018-12-06T09:54:23.162Z,1010.44
2018-12-06T09:55:28.695Z,1010.41
2018-12-06T09:56:34.231Z,1010.38
2018-12-06T09:57:39.765Z,1010.37
2018-12-06T09:58:45.297Z,1010.29
2018-12-06T09:59:50.830Z,1010.28
2018-12-06T10:00:56.361Z,1010.27
2018-12-06T10:02:01.894Z,1010.25
2018-12-06T10:03:07.427Z,1010.18
2018-12-06T10:04:12.959Z,1010.15
2018-12-06T10:05:18.749Z,1010.14
2018-12-06T10:06:24.037Z,1010.19
2018-12-06T10:07:29.564Z,1010.14
2018-12-06T10:08:35.090Z,1010.16
2018-12-06T10:09:40.629Z,1010.20
2018-12-06T10:10:46.164Z,1010.17
2018-12-06T10:11:51.693Z,1010.19
2018-12-06T10:12:57.228Z,1010.19
2018-12-06T10:14:02.759Z,1010.23
2018-12-06T10:15:08.294Z,1010.25
2018-12-06T10:16:13.825Z,1010.30
2018-12-06T10:17:19.357Z,1010.34
2018-12-06T10:18:24.891Z,1010.34
2018-12-06T10:19:30.427Z,1010.35
2018-12-06T10:20:35.967Z,1010.38
2018-12-06T10:21:41.493Z,1010.31
2018-12-06T10:22:47.030Z,1010.35
2018-12-06T10:23:52.558Z,1010.32
2018-12-06T10:24:58.094Z,1010.33
2018-12-06T10:26:03.622Z,1010.33
2018-12-06T10:27:09.163Z,1010.33
2018-12-06T10:28:14.695Z,1010.36
2018-12-06T10:29:20.224Z,1010.36
2018-12-06T10:30:25.764Z,1010.37
2018-12-06T10:31:31.290Z,1010.35
2018-12-06T10:32:36.828Z,1010.33
2018-12-06T10:33:42.357Z,1010.37
2018-12-06T10:34:53.476Z,1010.40
2018-12-06T10:35:53.424Z,1010.42
2018-12-06T10:36:58.958Z,1010.45
2018-12-06T10:38:04.493Z,1010.49
2018-12-06T10:39:10.024Z,1010.56
2018-12-06T10:40:15.566Z,1010.54
2018-12-06T10:41:21.097Z,1010.60
2018-12-06T10:42:26.624Z,1010.60
2018-12-06T10:43:32.161Z,1010.61
2018-12-06T10:44:37.772Z,1010.63
2018-12-06T10:45:43.231Z,1010.61
2018-12-06T10:46:48.760Z,1010.71
2018-12-06T10:47:54.296Z,1010.65
2018-12-06T10:48:59.826Z,1010.63
2018-12-06T10:50:05.358Z,1010.63
2018-12-06T10:51:10.889Z,1010.67
2018-12-06T10:52:16.434Z,1010.66
2018-12-06T10:53:21.958Z,1010.71
2018-12-06T10:54:27.493Z,1010.72
2018-12-06T10:55:33.033Z,1010.77
2018-12-06T10:58:10.154Z,1010.71
2018-12-06T10:59:15.668Z,1010.64
2018-12-06T11:01:14.110Z,1010.55
2018-12-06T11:02:19.601Z,1010.50
2018-12-06T11:03:25.135Z,1010.45
2018-12-06T11:04:30.667Z,1010.44
2018-12-06T11:05:36.201Z,1010.43
2018-12-06T11:06:41.733Z,1010.42
2018-12-06T11:07:47.270Z,1010.33
2018-12-06T11:08:52.799Z,1010.23
2018-12-06T11:09:58.330Z,1010.12
2018-12-06T11:11:03.866Z,1010.03
2018-12-06T11:12:09.400Z,1009.93
2018-12-06T11:13:14.933Z,1009.84
2018-12-06T11:14:20.465Z,1009.80
2018-12-06T11:15:26.001Z,1009.76
2018-12-06T11:16:31.539Z,1009.74
2018-12-06T11:17:37.073Z,1009.74
2018-12-06T11:18:42.609Z,1009.70
2018-12-06T11:19:48.133Z,1009.71
2018-12-06T11:20:53.669Z,1009.72
2018-12-06T11:21:59.212Z,1009.70
2018-12-06T11:23:04.733Z,1009.67
2018-12-06T11:24:10.268Z,1009.63
2018-12-06T11:25:15.811Z,1009.61
2018-12-06T11:26:21.346Z,1009.63
2018-12-06T11:27:26.873Z,1009.62
2018-12-06T11:28:32.404Z,1009.62
2018-12-06T11:29:37.939Z,1009.63
2018-12-06T11:30:43.492Z,1009.60
2018-12-06T11:31:49.006Z,1009.60
2018-12-06T11:32:54.543Z,1009.68
2018-12-06T11:34:00.072Z,1009.69
2018-12-06T11:35:05.610Z,1009.74
2018-12-06T11:36:11.136Z,1009.75
2018-12-06T11:37:16.689Z,1009.74
2018-12-06T11:38:22.213Z,1009.75
2018-12-06T11:39:27.735Z,1009.80
2018-12-06T11:40:33.277Z,1009.82
2018-12-06T11:41:43.042Z,1009.91
2018-12-06T11:42:44.342Z,1009.86
2018-12-06T11:43:49.873Z,1009.72
2018-12-06T11:44:55.408Z,1009.72
2018-12-06T11:46:00.941Z,1009.75
2018-12-06T11:47:06.481Z,1009.78
2018-12-06T11:48:12.007Z,1009.86
2018-12-06T11:49:17.552Z,1009.88
2018-12-06T11:50:23.075Z,1009.93
2018-12-06T11:51:28.619Z,1009.95
2018-12-06T11:52:34.141Z,1009.98
2018-12-06T11:53:39.687Z,1009.99
2018-12-06T11:54:45.219Z,1010.02
2018-12-06T11:55:50.746Z,1010.07
2018-12-06T11:56:56.280Z,1010.07
2018-12-06T11:58:01.814Z,1009.97
2018-12-06T11:59:07.353Z,1010.00
2018-12-06T12:00:12.882Z,1009.96
2018-12-06T12:01:18.415Z,1009.95
2018-12-06T12:02:23.950Z,1009.97
2018-12-06T12:03:29.484Z,1009.96
2018-12-06T12:04:35.016Z,1009.93
2018-12-06T12:05:40.556Z,1009.87
2018-12-06T12:06:46.084Z,1009.86
2018-12-06T12:07:51.617Z,1009.83
2018-12-06T12:08:57.161Z,1009.90
2018-12-06T12:10:02.691Z,1009.96
2018-12-06T12:11:08.220Z,1010.00
2018-12-06T12:12:13.754Z,1010.06
2018-12-06T12:13:19.289Z,1010.16
2018-12-06T12:14:24.830Z,1010.17
2018-12-06T12:15:30.357Z,1010.24
2018-12-06T12:16:35.896Z,1010.25
2018-12-06T12:17:41.426Z,1010.25
2018-12-06T12:18:46.960Z,1010.28
2018-12-06T12:19:52.492Z,1010.30
2018-12-06T12:20:58.028Z,1010.37
2018-12-06T12:22:03.566Z,1010.39
2018-12-06T12:23:09.095Z,1010.36
2018-12-06T12:24:14.630Z,1010.39
2018-12-06T12:25:20.163Z,1010.32
2018-12-06T12:26:25.700Z,1010.22
2018-12-06T12:27:31.233Z,1010.17
2018-12-06T12:28:36.765Z,1010.14
2018-12-06T12:29:42.301Z,1010.23
2018-12-06T12:30:47.838Z,1010.22
2018-12-06T12:31:53.374Z,1010.23
2018-12-06T12:32:58.906Z,1010.16
2018-12-06T12:34:04.438Z,1010.15
2018-12-06T12:35:09.969Z,1010.15
2018-12-06T12:36:15.508Z,1010.11
2018-12-06T12:37:21.041Z,1010.15
2018-12-06T12:38:26.577Z,1010.07
2018-12-06T12:39:32.194Z,1010.07
2018-12-06T12:40:37.646Z,1010.01
2018-12-06T12:41:43.216Z,1009.94
2018-12-06T12:42:48.718Z,1010.01
2018-12-06T12:43:54.244Z,1010.03
2018-12-06T12:44:59.778Z,1010.01
2018-12-06T12:46:05.313Z,1010.00
2018-12-06T12:47:10.851Z,1009.92
2018-12-06T12:48:16.389Z,1009.90
2018-12-06T12:49:21.915Z,1009.84
2018-12-06T12:50:27.448Z,1009.86
2018-12-06T12:51:32.987Z,1009.79
2018-12-06T12:52:38.516Z,1009.81
2018-12-06T12:53:44.053Z,1009.79
2018-12-06T12:54:49.588Z,1009.74
2018-12-06T12:55:55.121Z,1009.71
2018-12-06T12:57:00.655Z,1009.71
2018-12-06T12:58:06.196Z,1009.65
2018-12-06T12:59:11.720Z,1009.69
2018-12-06T13:00:17.257Z,1009.75
2018-12-06T13:01:22.793Z,1009.75
2018-12-06T13:02:28.333Z,1009.75
2018-12-06T13:03:33.866Z,1009.68
2018-12-06T13:04:39.400Z,1009.68
2018-12-06T13:05:44.936Z,1009.70
2018-12-06T13:06:50.467Z,1009.74
2018-12-06T13:07:56.010Z,1009.76
2018-12-06T13:09:01.536Z,1009.77
2018-12-06T13:10:07.070Z,1009.77
2018-12-06T13:11:12.603Z,1009.78
2018-12-06T13:12:18.136Z,1009.77
2018-12-06T13:13:23.672Z,1009.81
2018-12-06T13:14:29.207Z,1009.74